createdAt,value
2022-10-22T00:02:20.599Z,13.50
2022-10-22T00:04:49.078Z,11.57
2022-10-22T00:07:17.801Z,10.80
2022-10-22T00:09:44.753Z,9.18
2022-10-22T00:12:11.829Z,7.18
2022-10-22T00:14:38.835Z,7.55
2022-10-22T00:17:08.039Z,8.68
2022-10-22T00:19:37.159Z,7.53
2022-10-22T00:22:05.679Z,13.10
2022-10-22T00:24:33.956Z,9.93
2022-10-22T00:27:00.770Z,11.00
2022-10-22T00:29:27.360Z,11.27
2022-10-22T00:34:22.293Z,9.90
2022-10-22T00:36:49.973Z,13.43
2022-10-22T00:39:19.407Z,19.70
2022-10-22T00:41:47.872Z,11.23
2022-10-22T00:44:51.945Z,9.95
2022-10-22T00:47:19.335Z,10.45
2022-10-22T00:49:47.837Z,8.27
2022-10-22T00:52:14.760Z,10.85
2022-10-22T00:54:42.202Z,10.88
2022-10-22T00:57:09.551Z,11.65
2022-10-22T00:59:37.159Z,9.13
2022-10-22T01:02:04.037Z,10.65
2022-10-22T01:04:30.627Z,10.13
2022-10-22T01:06:57.276Z,10.15
2022-10-22T01:09:30.949Z,10.27
2022-10-22T01:12:03.179Z,9.18
2022-10-22T01:14:52.047Z,8.80
2022-10-22T01:17:25.697Z,10.00
2022-10-22T01:20:25.847Z,10.00
2022-10-22T01:23:02.670Z,8.95
2022-10-22T01:25:42.219Z,9.43
2022-10-22T01:29:20.198Z,9.15
2022-10-22T01:31:52.822Z,9.38
2022-10-22T01:34:20.449Z,11.90
2022-10-22T01:36:48.095Z,7.43
2022-10-22T01:39:16.156Z,10.50
2022-10-22T01:41:46.109Z,13.15
2022-10-22T01:44:33.618Z,8.80
2022-10-22T01:47:15.858Z,8.15
2022-10-22T01:50:10.443Z,10.73
2022-10-22T01:53:11.003Z,10.90
2022-10-22T01:55:40.639Z,10.93
2022-10-22T01:58:17.669Z,10.70
2022-10-22T02:00:55.169Z,12.27
2022-10-22T02:03:37.003Z,9.70
2022-10-22T02:08:35.637Z,10.18
2022-10-22T02:11:03.336Z,11.10
2022-10-22T02:13:55.071Z,8.00
2022-10-22T02:16:28.994Z,12.13
2022-10-22T02:18:59.625Z,13.40
2022-10-22T02:21:27.493Z,10.25
2022-10-22T02:23:54.376Z,8.98
2022-10-22T02:26:33.284Z,9.70
2022-10-22T02:29:05.481Z,13.27
2022-10-22T02:31:36.462Z,12.50
2022-10-22T02:34:10.008Z,11.63
2022-10-22T02:36:39.012Z,9.93
2022-10-22T02:39:07.789Z,11.27
2022-10-22T02:41:35.080Z,6.80
2022-10-22T02:44:02.969Z,8.13
2022-10-22T02:46:29.507Z,10.50
2022-10-22T02:48:56.143Z,9.60
2022-10-22T02:51:22.752Z,10.82
2022-10-22T02:53:49.350Z,9.43
2022-10-22T02:56:15.980Z,8.95
2022-10-22T02:58:42.591Z,10.80
2022-10-22T03:01:11.274Z,11.20
2022-10-22T03:03:40.409Z,10.85
2022-10-22T03:06:07.317Z,10.85
2022-10-22T03:08:33.903Z,13.85
2022-10-22T03:11:00.479Z,12.60
2022-10-22T03:13:27.143Z,9.13
2022-10-22T03:15:53.703Z,9.27
2022-10-22T03:18:20.280Z,15.73
2022-10-22T03:20:46.887Z,8.75
2022-10-22T03:23:17.061Z,8.20
2022-10-22T03:25:44.407Z,10.32
2022-10-22T03:28:13.792Z,7.28
2022-10-22T03:30:40.348Z,10.02
2022-10-22T03:33:06.953Z,7.35
2022-10-22T03:35:40.520Z,9.95
2022-10-22T03:38:07.072Z,10.00
2022-10-22T03:40:33.776Z,14.15
2022-10-22T03:43:00.359Z,7.95
2022-10-22T03:45:27.004Z,13.18
2022-10-22T03:47:53.599Z,11.73
2022-10-22T03:50:20.233Z,12.43
2022-10-22T03:52:46.794Z,7.65
2022-10-22T03:55:13.355Z,11.57
2022-10-22T03:57:40.212Z,12.32
2022-10-22T04:00:07.763Z,10.50
2022-10-22T04:02:34.376Z,14.30
2022-10-22T04:05:01.049Z,9.63
2022-10-22T04:07:27.783Z,12.57
2022-10-22T04:09:54.456Z,14.43
2022-10-22T04:12:21.117Z,11.82
2022-10-22T04:14:47.994Z,13.23
2022-10-22T04:17:15.104Z,14.30
2022-10-22T04:19:41.657Z,21.73
2022-10-22T04:22:08.215Z,16.25
2022-10-22T04:24:35.276Z,12.00
2022-10-22T04:27:01.842Z,13.45
2022-10-22T04:29:28.426Z,10.70
2022-10-22T04:31:55.019Z,9.55
2022-10-22T04:34:21.713Z,11.77
2022-10-22T04:36:48.334Z,10.70
2022-10-22T04:39:15.112Z,9.05
2022-10-22T04:41:41.716Z,11.18
2022-10-22T04:44:12.274Z,10.00
2022-10-22T04:46:42.721Z,15.75
2022-10-22T04:49:09.305Z,10.38
2022-10-22T04:51:35.956Z,10.45
2022-10-22T04:54:02.557Z,10.25
2022-10-22T04:56:31.328Z,9.88
2022-10-22T04:59:02.296Z,13.05
2022-10-22T05:01:31.368Z,12.45
2022-10-22T05:04:00.237Z,11.18
2022-10-22T05:06:28.638Z,15.10
2022-10-22T05:08:59.986Z,12.70
2022-10-22T05:11:29.016Z,14.90
2022-10-22T05:13:57.373Z,13.88
2022-10-22T05:16:25.034Z,11.32
2022-10-22T05:18:51.810Z,9.88
2022-10-22T05:21:20.469Z,7.22
2022-10-22T05:23:48.799Z,13.32
2022-10-22T05:26:18.547Z,10.90
2022-10-22T05:28:47.192Z,13.32
2022-10-22T05:31:14.169Z,12.43
2022-10-22T05:33:42.257Z,15.57
2022-10-22T05:36:12.016Z,10.48
2022-10-22T05:38:38.634Z,11.85
2022-10-22T05:41:07.695Z,11.88
2022-10-22T05:43:34.996Z,11.63
2022-10-22T05:46:10.089Z,13.52
2022-10-22T05:48:36.857Z,11.88
2022-10-22T05:51:09.018Z,11.25
2022-10-22T05:53:37.770Z,12.57
2022-10-22T05:56:07.793Z,12.95
2022-10-22T05:58:35.065Z,12.35
2022-10-22T06:01:04.096Z,14.30
2022-10-22T06:03:31.789Z,13.35
2022-10-22T06:06:04.639Z,12.23
2022-10-22T06:08:31.612Z,11.85
2022-10-22T06:10:58.418Z,10.05
2022-10-22T06:13:25.225Z,11.55
2022-10-22T06:15:53.429Z,9.55
2022-10-22T06:18:20.186Z,18.58
2022-10-22T06:20:47.614Z,14.77
2022-10-22T06:23:15.296Z,11.43
2022-10-22T06:25:42.397Z,11.27
2022-10-22T06:28:09.297Z,13.23
2022-10-22T06:30:40.756Z,10.25
2022-10-22T06:33:09.560Z,9.95
2022-10-22T06:35:36.156Z,13.50
2022-10-22T06:38:02.889Z,14.90
2022-10-22T06:40:29.521Z,11.70
2022-10-22T06:42:56.126Z,10.90
2022-10-22T06:45:22.734Z,11.32
2022-10-22T06:47:49.416Z,12.10
2022-10-22T06:50:16.104Z,11.27
2022-10-22T06:52:42.684Z,13.77
2022-10-22T06:55:09.876Z,12.85
2022-10-22T06:57:36.473Z,15.32
2022-10-22T07:00:04.804Z,10.73
2022-10-22T07:06:18.300Z,6.10
2022-10-22T07:08:45.159Z,11.00
2022-10-22T07:11:14.752Z,8.52
2022-10-22T07:13:41.716Z,12.27
2022-10-22T07:16:09.567Z,10.68
2022-10-22T07:18:37.585Z,14.50
2022-10-22T07:21:05.776Z,12.35
2022-10-22T07:23:32.693Z,12.75
2022-10-22T07:25:59.389Z,7.32
2022-10-22T07:28:26.064Z,12.82
2022-10-22T07:30:52.930Z,10.20
2022-10-22T07:33:19.551Z,14.38
2022-10-22T07:35:46.323Z,8.45
2022-10-22T07:38:12.898Z,9.93
2022-10-22T07:40:39.489Z,11.57
2022-10-22T07:43:07.054Z,8.73
2022-10-22T07:45:33.808Z,12.00
2022-10-22T07:48:01.721Z,9.07
2022-10-22T07:50:28.381Z,12.68
2022-10-22T07:52:57.451Z,6.40
2022-10-22T07:55:25.187Z,10.93
2022-10-22T07:57:51.762Z,12.85
2022-10-22T08:00:20.590Z,7.22
2022-10-22T08:02:49.736Z,11.73
2022-10-22T08:05:16.555Z,12.23
2022-10-22T08:07:43.539Z,12.30
2022-10-22T08:10:11.616Z,7.57
2022-10-22T08:12:39.234Z,17.50
2022-10-22T08:15:06.650Z,14.65
2022-10-22T08:17:33.249Z,7.90
2022-10-22T08:19:59.803Z,9.77
2022-10-22T08:22:26.379Z,8.57
2022-10-22T08:24:53.480Z,9.55
2022-10-22T08:27:20.059Z,7.15
2022-10-22T08:29:46.703Z,11.10
2022-10-22T08:32:13.638Z,14.35
2022-10-22T08:34:40.277Z,8.27
2022-10-22T08:37:08.419Z,10.85
2022-10-22T08:39:34.998Z,9.07
2022-10-22T08:42:32.781Z,9.50
2022-10-22T08:45:24.427Z,9.43
2022-10-22T08:48:00.899Z,15.10
2022-10-22T08:50:35.522Z,7.43
2022-10-22T08:53:07.853Z,17.95
2022-10-22T08:55:37.583Z,12.85
2022-10-22T08:58:17.488Z,12.95
2022-10-22T09:00:52.229Z,13.25
2022-10-22T09:03:27.265Z,15.55
2022-10-22T09:06:15.703Z,9.05
2022-10-22T09:08:44.575Z,12.27
2022-10-22T09:11:11.134Z,11.40
2022-10-22T09:13:38.278Z,13.00
2022-10-22T09:16:22.259Z,12.02
2022-10-22T09:19:02.880Z,15.25
2022-10-22T09:21:34.347Z,11.20
2022-10-22T09:24:04.593Z,8.80
2022-10-22T09:26:36.335Z,15.43
2022-10-22T09:29:03.698Z,10.02
2022-10-22T09:31:32.595Z,9.23
2022-10-22T09:34:05.789Z,11.45
2022-10-22T09:36:33.028Z,11.00
2022-10-22T09:38:59.804Z,9.75
2022-10-22T09:41:32.108Z,9.45
2022-10-22T09:43:59.383Z,11.57
2022-10-22T09:46:39.648Z,9.02
2022-10-22T09:49:12.460Z,8.73
2022-10-22T09:51:58.616Z,9.57
2022-10-22T09:54:39.228Z,7.20
2022-10-22T09:57:25.232Z,13.02
2022-10-22T09:59:53.913Z,9.18
2022-10-22T10:02:37.961Z,10.18
2022-10-22T10:05:07.239Z,10.10
2022-10-22T10:07:35.769Z,10.63
2022-10-22T10:10:16.600Z,9.80
2022-10-22T10:12:59.980Z,7.73
2022-10-22T10:15:52.213Z,8.75
2022-10-22T10:18:21.738Z,9.25
2022-10-22T10:21:05.232Z,10.55
2022-10-22T10:24:00.678Z,6.05
2022-10-22T10:26:57.069Z,10.70
2022-10-22T10:29:44.489Z,9.80
2022-10-22T10:32:24.412Z,10.18
2022-10-22T10:35:11.421Z,10.23
2022-10-22T10:37:52.090Z,13.90
2022-10-22T10:40:21.976Z,6.75
2022-10-22T10:43:02.709Z,9.77
2022-10-22T10:46:19.899Z,5.50
2022-10-22T10:49:10.220Z,7.18
2022-10-22T10:51:50.290Z,6.88
2022-10-22T10:54:52.358Z,5.95
2022-10-22T10:57:18.883Z,8.18
2022-10-22T11:00:03.054Z,7.95
2022-10-22T11:03:07.340Z,11.00
2022-10-22T11:05:39.826Z,11.82
2022-10-22T11:08:26.777Z,11.43
2022-10-22T11:11:00.984Z,12.25
2022-10-22T11:13:39.191Z,7.60
2022-10-22T11:16:10.080Z,6.93
2022-10-22T11:18:45.496Z,9.32
2022-10-22T11:21:30.662Z,7.72
2022-10-22T11:24:09.945Z,10.23
2022-10-22T11:26:45.432Z,9.80
2022-10-22T11:29:19.280Z,7.15
2022-10-22T11:31:47.272Z,8.98
2022-10-22T11:34:32.561Z,10.73
2022-10-22T11:37:01.061Z,10.90
2022-10-22T11:39:49.149Z,11.57
2022-10-22T11:42:21.742Z,9.98
2022-10-22T11:45:03.794Z,11.73
2022-10-22T11:47:57.873Z,12.00
2022-10-22T11:50:41.469Z,12.50
2022-10-22T11:53:14.072Z,11.38
2022-10-22T11:55:48.061Z,10.30
2022-10-22T11:58:42.103Z,14.48
2022-10-22T12:01:08.658Z,7.90
2022-10-22T12:03:35.269Z,8.45
2022-10-22T12:06:15.320Z,11.52
2022-10-22T12:08:46.129Z,10.65
2022-10-22T12:11:19.033Z,12.30
2022-10-22T12:14:26.399Z,11.27
2022-10-22T12:16:57.931Z,15.02
2022-10-22T12:19:43.180Z,14.00
2022-10-22T12:22:19.331Z,11.52
2022-10-22T12:24:51.737Z,12.90
2022-10-22T12:27:24.127Z,14.70
2022-10-22T12:29:58.615Z,11.15
2022-10-22T12:32:37.348Z,10.82
2022-10-22T12:35:11.361Z,11.05
2022-10-22T12:37:38.627Z,15.25
2022-10-22T12:40:21.337Z,11.85
2022-10-22T12:42:53.071Z,10.20
2022-10-22T12:45:20.185Z,9.27
2022-10-22T12:47:48.440Z,9.07
2022-10-22T12:50:20.984Z,12.50
2022-10-22T12:52:48.603Z,8.48
2022-10-22T12:55:22.125Z,8.35
2022-10-22T12:57:49.355Z,10.40
2022-10-22T13:00:34.543Z,11.75
2022-10-22T13:03:06.284Z,13.50
2022-10-22T13:05:39.109Z,10.23
2022-10-22T13:08:17.949Z,13.07
2022-10-22T13:10:52.171Z,12.02
2022-10-22T13:13:33.968Z,11.35
2022-10-22T13:16:16.727Z,11.60
2022-10-22T13:18:44.345Z,13.45
2022-10-22T13:21:30.001Z,10.52
2022-10-22T13:24:02.356Z,16.33
2022-10-22T13:26:34.870Z,9.40
2022-10-22T13:29:02.993Z,10.02
2022-10-22T13:31:33.296Z,10.75
2022-10-22T13:34:09.717Z,14.27
2022-10-22T13:36:38.371Z,10.40
2022-10-22T13:39:07.889Z,14.18
2022-10-22T13:44:06.595Z,11.90
2022-10-22T13:46:33.807Z,14.30
2022-10-22T13:49:00.430Z,12.50
2022-10-22T13:51:35.457Z,14.13
2022-10-22T13:54:04.160Z,11.07
2022-10-22T13:56:30.800Z,13.98
2022-10-22T13:58:57.367Z,12.85
2022-10-22T14:01:26.875Z,12.57
2022-10-22T14:03:57.887Z,15.82
2022-10-22T14:06:28.694Z,20.17
2022-10-22T14:08:59.974Z,12.20
2022-10-22T14:11:27.447Z,14.30
2022-10-22T14:13:54.510Z,14.15
2022-10-22T14:16:24.470Z,12.57
2022-10-22T14:18:51.697Z,11.35
2022-10-22T14:21:19.096Z,10.13
2022-10-22T14:23:47.412Z,9.90
2022-10-22T14:26:30.187Z,10.57
2022-10-22T14:29:09.436Z,12.07
2022-10-22T14:34:11.879Z,12.77
2022-10-22T14:36:38.542Z,8.90
2022-10-22T14:39:05.187Z,13.13
2022-10-22T14:41:31.831Z,11.38
2022-10-22T14:43:59.695Z,12.07
2022-10-22T14:46:26.436Z,15.00
2022-10-22T14:48:53.021Z,10.93
2022-10-22T14:51:23.116Z,15.25
2022-10-22T14:53:49.720Z,12.68
2022-10-22T14:56:18.404Z,15.20
2022-10-22T14:58:45.598Z,9.50
2022-10-22T15:01:12.629Z,9.57
2022-10-22T15:03:39.275Z,12.05
2022-10-22T15:06:06.871Z,12.35
2022-10-22T15:08:33.725Z,12.18
2022-10-22T15:11:05.779Z,13.85
2022-10-22T15:13:32.837Z,11.20
2022-10-22T15:16:00.060Z,11.35
2022-10-22T15:18:27.828Z,12.55
2022-10-22T15:21:02.665Z,8.63
2022-10-22T15:23:29.695Z,10.88
2022-10-22T15:25:57.028Z,10.82
2022-10-22T15:28:23.979Z,12.48
2022-10-22T15:30:58.883Z,16.73
2022-10-22T15:33:25.961Z,9.98
2022-10-22T15:35:52.615Z,13.02
2022-10-22T15:38:19.952Z,17.83
2022-10-22T15:40:47.043Z,15.20
2022-10-22T15:43:14.154Z,9.35
2022-10-22T15:45:40.766Z,9.88
2022-10-22T15:48:07.485Z,8.32
2022-10-22T15:50:38.464Z,11.85
2022-10-22T15:53:05.219Z,11.18
2022-10-22T15:55:31.856Z,10.77
2022-10-22T15:58:00.632Z,13.13
2022-10-22T16:00:30.087Z,15.32
2022-10-22T16:02:56.758Z,11.52
2022-10-22T16:05:23.442Z,13.35
2022-10-22T16:07:51.364Z,13.50
2022-10-22T16:10:18.009Z,10.50
2022-10-22T16:12:44.823Z,13.15
2022-10-22T16:15:11.673Z,9.65
2022-10-22T16:17:38.349Z,15.27
2022-10-22T16:20:07.611Z,18.98
2022-10-22T16:22:34.337Z,14.48
2022-10-22T16:25:00.968Z,17.40
2022-10-22T16:27:27.596Z,18.73
2022-10-22T16:29:54.209Z,11.90
2022-10-22T16:32:20.791Z,10.48
2022-10-22T16:34:47.360Z,13.75
2022-10-22T16:37:13.944Z,13.75
2022-10-22T16:39:40.516Z,16.20
2022-10-22T16:42:07.183Z,14.00
2022-10-22T16:44:33.915Z,15.93
2022-10-22T16:47:00.941Z,14.75
2022-10-22T16:49:27.622Z,11.80
2022-10-22T16:51:54.196Z,15.80
2022-10-22T16:54:21.720Z,11.32
2022-10-22T16:56:48.359Z,15.27
2022-10-22T16:59:14.932Z,15.38
2022-10-22T17:01:41.693Z,18.35
2022-10-22T17:04:08.790Z,19.98
2022-10-22T17:06:35.690Z,12.80
2022-10-22T17:09:02.543Z,17.95
2022-10-22T17:11:36.234Z,19.15
2022-10-22T17:14:04.854Z,14.50
2022-10-22T17:16:31.678Z,15.88
2022-10-22T17:18:58.503Z,21.15
2022-10-22T17:21:25.147Z,23.83
2022-10-22T17:23:58.501Z,20.88
2022-10-22T17:26:26.829Z,19.80
2022-10-22T17:28:54.158Z,17.20
2022-10-22T17:31:25.589Z,17.15
2022-10-22T17:33:54.312Z,15.57
2022-10-22T17:36:22.170Z,17.67
2022-10-22T17:38:50.751Z,17.20
2022-10-22T17:41:19.859Z,19.92
2022-10-22T17:43:47.192Z,24.45
2022-10-22T17:46:26.846Z,29.65
2022-10-22T17:48:57.064Z,19.05
2022-10-22T17:51:25.446Z,21.55
2022-10-22T17:53:52.524Z,22.13
2022-10-22T17:56:22.000Z,18.25
2022-10-22T17:58:48.678Z,17.67
2022-10-22T18:01:24.967Z,23.95
2022-10-22T18:03:53.140Z,17.58
2022-10-22T18:06:19.851Z,20.67
2022-10-22T18:08:46.590Z,15.88
2022-10-22T18:11:17.746Z,15.88
2022-10-22T18:13:44.933Z,19.55
2022-10-22T18:16:12.458Z,14.05
2022-10-22T18:18:39.085Z,17.83
2022-10-22T18:21:05.877Z,21.73
2022-10-22T18:23:33.326Z,22.20
2022-10-22T18:25:59.935Z,19.02
2022-10-22T18:28:26.528Z,10.25
2022-10-22T18:30:53.116Z,14.73
2022-10-22T18:33:19.742Z,15.05
2022-10-22T18:35:46.676Z,16.10
2022-10-22T18:38:13.356Z,18.95
2022-10-22T18:40:46.700Z,14.45
2022-10-22T18:43:13.637Z,16.73
2022-10-22T18:45:47.703Z,14.05
2022-10-22T18:48:17.002Z,18.98
2022-10-22T18:50:44.444Z,18.00
2022-10-22T18:53:14.428Z,18.88
2022-10-22T18:55:41.325Z,22.08
2022-10-22T18:58:07.966Z,16.88
2022-10-22T19:00:35.594Z,21.27
2022-10-22T19:03:03.171Z,25.05
2022-10-22T19:05:29.879Z,24.45
2022-10-22T19:07:56.458Z,19.73
2022-10-22T19:10:23.094Z,22.17
2022-10-22T19:12:49.652Z,14.57
2022-10-22T19:15:16.333Z,18.00
2022-10-22T19:17:43.254Z,21.30
2022-10-22T19:20:10.483Z,14.15
2022-10-22T19:22:37.079Z,12.75
2022-10-22T19:25:06.003Z,22.08
2022-10-22T19:27:36.333Z,18.83
2022-10-22T19:30:06.484Z,24.88
2022-10-22T19:32:33.035Z,25.42
2022-10-22T19:34:59.690Z,24.92
2022-10-22T19:37:26.243Z,17.13
2022-10-22T19:39:52.795Z,16.08
2022-10-22T19:42:20.779Z,20.95
2022-10-22T19:44:47.369Z,16.25
2022-10-22T19:47:14.008Z,14.73
2022-10-22T19:49:42.385Z,23.05
2022-10-22T19:52:09.049Z,19.55
2022-10-22T19:54:40.536Z,17.98
2022-10-22T19:57:08.031Z,21.48
2022-10-22T19:59:34.689Z,16.63
2022-10-22T20:02:01.292Z,23.25
2022-10-22T20:04:28.035Z,19.55
2022-10-22T20:06:55.138Z,17.45
2022-10-22T20:09:21.772Z,23.05
2022-10-22T20:11:48.376Z,19.38
2022-10-22T20:14:15.080Z,13.85
2022-10-22T20:16:42.421Z,14.88
2022-10-22T20:19:10.743Z,13.90
2022-10-22T20:21:37.526Z,12.55
2022-10-22T20:24:04.484Z,18.30
2022-10-22T20:26:31.607Z,17.50
2022-10-22T20:28:58.895Z,22.67
2022-10-22T20:31:28.293Z,10.10
2022-10-22T20:34:00.955Z,16.40
2022-10-22T20:36:30.037Z,18.67
2022-10-22T20:39:03.090Z,22.23
2022-10-22T20:41:29.914Z,16.58
2022-10-22T20:43:56.542Z,13.32
2022-10-22T20:46:26.746Z,19.67
2022-10-22T20:49:14.889Z,15.98
2022-10-22T20:51:41.495Z,16.00
2022-10-22T20:54:09.185Z,12.07
2022-10-22T20:56:37.914Z,17.50
2022-10-22T20:59:05.223Z,14.70
2022-10-22T21:02:02.378Z,16.70
2022-10-22T21:04:29.966Z,15.32
2022-10-22T21:06:57.240Z,11.93
2022-10-22T21:09:24.958Z,12.68
2022-10-22T21:14:23.212Z,16.35
2022-10-22T21:16:51.326Z,16.27
2022-10-22T21:19:19.429Z,15.52
2022-10-22T21:21:45.997Z,20.10
2022-10-22T21:24:12.861Z,17.52
2022-10-22T21:26:41.855Z,17.35
2022-10-22T21:29:09.446Z,12.27
2022-10-22T21:31:37.163Z,14.32
2022-10-22T21:34:03.828Z,17.88
2022-10-22T21:36:30.496Z,16.48
2022-10-22T21:38:57.096Z,20.52
2022-10-22T21:41:24.316Z,10.60
2022-10-22T21:43:51.659Z,12.23
2022-10-22T21:46:21.196Z,25.70
2022-10-22T21:48:52.667Z,24.33
2022-10-22T21:51:20.487Z,26.70
2022-10-22T21:53:47.743Z,21.33
2022-10-22T21:56:20.436Z,20.20
2022-10-22T21:58:47.358Z,25.38
2022-10-22T22:01:15.307Z,25.77
2022-10-22T22:03:49.106Z,18.05
2022-10-22T22:06:21.158Z,17.30
2022-10-22T22:08:50.136Z,23.33
2022-10-22T22:11:22.681Z,21.73
2022-10-22T22:13:49.858Z,19.65
2022-10-22T22:16:22.519Z,21.20
2022-10-22T22:18:52.448Z,28.30
2022-10-22T22:21:21.035Z,20.33
2022-10-22T22:23:49.265Z,16.60
2022-10-22T22:26:20.083Z,24.20
2022-10-22T22:28:47.544Z,16.63
2022-10-22T22:31:19.331Z,20.17
2022-10-22T22:36:12.777Z,21.02
2022-10-22T22:38:39.673Z,22.08
2022-10-22T22:41:08.178Z,19.58
2022-10-22T22:43:35.932Z,21.10
2022-10-22T22:46:08.448Z,17.58
2022-10-22T22:48:35.038Z,21.88
2022-10-22T22:51:03.767Z,16.55
2022-10-22T22:53:30.509Z,14.15
2022-10-22T22:56:28.786Z,18.83
2022-10-22T22:58:56.109Z,21.98
2022-10-22T23:01:27.118Z,21.23
2022-10-22T23:04:06.121Z,21.90
2022-10-22T23:06:36.039Z,18.15
2022-10-22T23:09:04.440Z,14.63
2022-10-22T23:11:31.064Z,18.63
2022-10-22T23:13:59.981Z,19.38
2022-10-22T23:16:29.508Z,14.93
2022-10-22T23:18:56.528Z,17.95
2022-10-22T23:21:28.967Z,14.27
2022-10-22T23:23:57.963Z,13.90
2022-10-22T23:26:37.370Z,18.00
2022-10-22T23:29:10.177Z,22.95
2022-10-22T23:31:36.845Z,16.10
2022-10-22T23:34:03.817Z,16.45
2022-10-22T23:36:30.433Z,22.58
2022-10-22T23:38:57.152Z,22.00
2022-10-22T23:41:23.716Z,15.88
2022-10-22T23:43:50.795Z,15.13
2022-10-22T23:46:17.364Z,13.90
2022-10-22T23:48:44.068Z,21.67
2022-10-22T23:51:15.385Z,23.05
2022-10-22T23:53:43.752Z,14.60
2022-10-22T23:56:15.134Z,16.33
2022-10-22T23:58:42.286Z,14.15
